sensor_id;sensor_type;location;lat;lon;timestamp;pressure;altitude;pressure_sealevel;temperature;humidity
74346;BME280;62776;50.518;6.732;2023-02-15T00:02:21;97720.66;;;5.02;100.00
74346;BME280;62776;50.518;6.732;2023-02-15T00:05:08;97717.41;;;5.09;100.00
74346;BME280;62776;50.518;6.732;2023-02-15T00:07:57;97720.31;;;5.19;100.00
74346;BME280;62776;50.518;6.732;2023-02-15T00:10:44;97716.34;;;5.30;100.00
74346;BME280;62776;50.518;6.732;2023-02-15T00:13:32;97713.16;;;5.39;100.00
74346;BME280;62776;50.518;6.732;2023-02-15T00:16:21;97708.13;;;5.44;100.00
74346;BME280;62776;50.518;6.732;2023-02-15T00:19:08;97701.34;;;5.47;100.00
74346;BME280;62776;50.518;6.732;2023-02-15T00:21:55;97692.88;;;5.51;100.00
74346;BME280;62776;50.518;6.732;2023-02-15T00:24:42;97691.19;;;5.53;100.00
74346;BME280;62776;50.518;6.732;2023-02-15T00:27:29;97691.13;;;5.50;100.00
74346;BME280;62776;50.518;6.732;2023-02-15T00:30:15;97689.69;;;5.61;100.00
74346;BME280;62776;50.518;6.732;2023-02-15T00:33:04;97686.41;;;5.67;100.00
74346;BME280;62776;50.518;6.732;2023-02-15T00:35:57;97687.28;;;5.66;100.00
74346;BME280;62776;50.518;6.732;2023-02-15T00:38:45;97678.78;;;5.71;100.00
74346;BME280;62776;50.518;6.732;2023-02-15T00:41:32;97679.72;;;5.73;100.00
74346;BME280;62776;50.518;6.732;2023-02-15T00:44:19;97674.56;;;5.73;100.00
74346;BME280;62776;50.518;6.732;2023-02-15T00:47:05;97682.16;;;5.69;100.00
74346;BME280;62776;50.518;6.732;2023-02-15T00:49:51;97676.09;;;5.67;100.00
74346;BME280;62776;50.518;6.732;2023-02-15T00:52:37;97681.09;;;5.61;100.00
74346;BME280;62776;50.518;6.732;2023-02-15T00:55:29;97671.47;;;5.55;100.00
74346;BME280;62776;50.518;6.732;2023-02-15T00:58:23;97675.78;;;5.55;100.00
74346;BME280;62776;50.518;6.732;2023-02-15T01:01:16;97671.38;;;5.51;99.68
74346;BME280;62776;50.518;6.732;2023-02-15T01:04:04;97670.78;;;5.61;99.82
74346;BME280;62776;50.518;6.732;2023-02-15T01:06:51;97673.34;;;5.61;100.00
74346;BME280;62776;50.518;6.732;2023-02-15T01:09:43;97671.53;;;5.57;100.00
74346;BME280;62776;50.518;6.732;2023-02-15T01:12:36;97673.22;;;5.55;100.00
74346;BME280;62776;50.518;6.732;2023-02-15T01:15:24;97668.06;;;5.55;100.00
74346;BME280;62776;50.518;6.732;2023-02-15T01:18:12;97669.78;;;5.56;99.72
74346;BME280;62776;50.518;6.732;2023-02-15T01:20:59;97667.28;;;5.59;99.16
74346;BME280;62776;50.518;6.732;2023-02-15T01:23:47;97659.63;;;5.62;98.55
74346;BME280;62776;50.518;6.732;2023-02-15T01:26:35;97656.25;;;5.64;98.44
74346;BME280;62776;50.518;6.732;2023-02-15T01:29:21;97659.72;;;5.65;98.23
74346;BME280;62776;50.518;6.732;2023-02-15T01:32:07;97651.06;;;5.63;98.17
74346;BME280;62776;50.518;6.732;2023-02-15T01:34:53;97655.47;;;5.67;97.44
74346;BME280;62776;50.518;6.732;2023-02-15T01:37:40;97644.25;;;5.66;97.26
74346;BME280;62776;50.518;6.732;2023-02-15T01:40:26;97646.03;;;5.67;96.73
74346;BME280;62776;50.518;6.732;2023-02-15T01:43:27;97643.47;;;5.69;96.22
74346;BME280;62776;50.518;6.732;2023-02-15T01:46:39;97642.56;;;5.67;95.12
74346;BME280;62776;50.518;6.732;2023-02-15T01:49:29;97634.91;;;5.70;95.16
74346;BME280;62776;50.518;6.732;2023-02-15T01:52:22;97636.69;;;5.72;94.44
74346;BME280;62776;50.518;6.732;2023-02-15T01:55:16;97635.88;;;5.73;93.95
74346;BME280;62776;50.518;6.732;2023-02-15T01:58:03;97636.84;;;5.78;93.26
74346;BME280;62776;50.518;6.732;2023-02-15T02:00:50;97636.84;;;5.78;92.46
74346;BME280;62776;50.518;6.732;2023-02-15T02:03:59;97637.31;;;5.62;91.39
74346;BME280;62776;50.518;6.732;2023-02-15T02:06:49;97641.13;;;5.78;91.46
74346;BME280;62776;50.518;6.732;2023-02-15T02:09:37;97631.69;;;5.78;91.73
74346;BME280;62776;50.518;6.732;2023-02-15T02:12:24;97635.97;;;5.78;91.91
74346;BME280;62776;50.518;6.732;2023-02-15T02:15:12;97636.97;;;5.83;91.35
74346;BME280;62776;50.518;6.732;2023-02-15T02:18:15;97631.03;;;5.85;91.37
74346;BME280;62776;50.518;6.732;2023-02-15T02:27:49;97624.75;;;5.76;91.48
74346;BME280;62776;50.518;6.732;2023-02-15T02:34:05;97614.97;;;5.63;90.50
74346;BME280;62776;50.518;6.732;2023-02-15T02:40:11;97596.53;;;5.82;88.86
74346;BME280;62776;50.518;6.732;2023-02-15T02:43:05;97596.66;;;5.85;87.61
74346;BME280;62776;50.518;6.732;2023-02-15T02:46:07;97595.84;;;5.87;86.62
74346;BME280;62776;50.518;6.732;2023-02-15T02:48:57;97585.66;;;5.93;86.85
74346;BME280;62776;50.518;6.732;2023-02-15T02:51:44;97589.25;;;5.99;85.41
74346;BME280;62776;50.518;6.732;2023-02-15T02:54:32;97579.84;;;6.02;84.14
74346;BME280;62776;50.518;6.732;2023-02-15T02:57:21;97586.59;;;5.97;84.41
74346;BME280;62776;50.518;6.732;2023-02-15T03:00:11;97582.34;;;5.99;84.77
74346;BME280;62776;50.518;6.732;2023-02-15T03:03:09;97577.88;;;5.90;85.60
74346;BME280;62776;50.518;6.732;2023-02-15T03:06:07;97568.09;;;5.79;87.33
74346;BME280;62776;50.518;6.732;2023-02-15T03:09:03;97567.78;;;5.67;88.78
74346;BME280;62776;50.518;6.732;2023-02-15T03:11:53;97572.75;;;5.59;90.63
74346;BME280;62776;50.518;6.732;2023-02-15T03:14:41;97574.09;;;5.45;91.79
74346;BME280;62776;50.518;6.732;2023-02-15T03:17:32;97574.66;;;5.33;92.90
74346;BME280;62776;50.518;6.732;2023-02-15T03:20:30;97575.16;;;5.20;93.75
74346;BME280;62776;50.518;6.732;2023-02-15T03:23:28;97572.50;;;5.17;95.29
74346;BME280;62776;50.518;6.732;2023-02-15T03:26:15;97564.66;;;5.13;96.40
74346;BME280;62776;50.518;6.732;2023-02-15T03:29:03;97554.06;;;5.02;96.95
74346;BME280;62776;50.518;6.732;2023-02-15T03:31:55;97567.59;;;4.95;97.37
74346;BME280;62776;50.518;6.732;2023-02-15T03:34:44;97563.19;;;4.91;98.70
74346;BME280;62776;50.518;6.732;2023-02-15T03:37:39;97565.53;;;4.84;99.35
74346;BME280;62776;50.518;6.732;2023-02-15T03:40:37;97564.44;;;4.74;99.69
74346;BME280;62776;50.518;6.732;2023-02-15T03:46:47;97563.56;;;4.73;99.70
74346;BME280;62776;50.518;6.732;2023-02-15T03:49:47;97560.19;;;4.76;99.93
74346;BME280;62776;50.518;6.732;2023-02-15T03:52:37;97560.47;;;4.87;100.00
74346;BME280;62776;50.518;6.732;2023-02-15T03:55:24;97552.72;;;4.85;100.00
74346;BME280;62776;50.518;6.732;2023-02-15T03:58:10;97553.50;;;4.83;100.00
74346;BME280;62776;50.518;6.732;2023-02-15T04:01:31;97554.91;;;4.71;100.00
74346;BME280;62776;50.518;6.732;2023-02-15T04:04:41;97551.94;;;4.88;99.86
74346;BME280;62776;50.518;6.732;2023-02-15T04:07:30;97551.41;;;4.99;99.28
74346;BME280;62776;50.518;6.732;2023-02-15T04:10:16;97553.28;;;5.06;98.18
74346;BME280;62776;50.518;6.732;2023-02-15T04:13:23;97549.91;;;5.07;97.51
74346;BME280;62776;50.518;6.732;2023-02-15T04:16:10;97543.06;;;5.09;97.54
74346;BME280;62776;50.518;6.732;2023-02-15T04:18:59;97548.22;;;5.09;97.20
74346;BME280;62776;50.518;6.732;2023-02-15T04:22:05;97550.72;;;5.06;97.21
74346;BME280;62776;50.518;6.732;2023-02-15T04:25:11;97545.41;;;5.00;97.57
74346;BME280;62776;50.518;6.732;2023-02-15T04:28:00;97545.31;;;4.97;97.84
74346;BME280;62776;50.518;6.732;2023-02-15T04:30:46;97549.47;;;4.92;98.16
74346;BME280;62776;50.518;6.732;2023-02-15T04:33:33;97533.13;;;4.92;98.56
74346;BME280;62776;50.518;6.732;2023-02-15T04:36:21;97527.06;;;4.88;98.79
74346;BME280;62776;50.518;6.732;2023-02-15T04:39:16;97538.06;;;4.83;98.72
74346;BME280;62776;50.518;6.732;2023-02-15T04:42:02;97540.56;;;4.81;99.06
74346;BME280;62776;50.518;6.732;2023-02-15T04:44:55;97531.94;;;4.79;98.63
74346;BME280;62776;50.518;6.732;2023-02-15T04:47:42;97534.78;;;4.88;97.18
74346;BME280;62776;50.518;6.732;2023-02-15T04:50:28;97529.72;;;4.91;96.82
74346;BME280;62776;50.518;6.732;2023-02-15T04:53:14;97527.94;;;4.89;96.88
74346;BME280;62776;50.518;6.732;2023-02-15T04:56:03;97536.38;;;4.83;97.03
74346;BME280;62776;50.518;6.732;2023-02-15T04:58:52;97537.91;;;4.78;96.99
74346;BME280;62776;50.518;6.732;2023-02-15T05:01:39;97537.91;;;4.78;97.02
74346;BME280;62776;50.518;6.732;2023-02-15T05:04:25;97531.78;;;4.73;96.68
74346;BME280;62776;50.518;6.732;2023-02-15T05:07:14;97530.78;;;4.68;96.43
74346;BME280;62776;50.518;6.732;2023-02-15T05:10:00;97537.59;;;4.66;96.76
74346;BME280;62776;50.518;6.732;2023-02-15T05:12:47;97531.38;;;4.59;97.04
74346;BME280;62776;50.518;6.732;2023-02-15T05:15:34;97531.28;;;4.56;97.48
74346;BME280;62776;50.518;6.732;2023-02-15T05:18:22;97541.38;;;4.49;97.81
74346;BME280;62776;50.518;6.732;2023-02-15T05:21:09;97531.88;;;4.46;98.01
74346;BME280;62776;50.518;6.732;2023-02-15T05:23:55;97534.41;;;4.45;98.19
74346;BME280;62776;50.518;6.732;2023-02-15T05:26:49;97538.59;;;4.41;97.96
74346;BME280;62776;50.518;6.732;2023-02-15T05:29:55;97543.66;;;4.38;97.89
74346;BME280;62776;50.518;6.732;2023-02-15T05:32:41;97529.09;;;4.39;97.60
74346;BME280;62776;50.518;6.732;2023-02-15T05:35:28;97542.78;;;4.38;96.96
74346;BME280;62776;50.518;6.732;2023-02-15T05:38:15;97541.03;;;4.37;96.88
74346;BME280;62776;50.518;6.732;2023-02-15T05:41:01;97540.97;;;4.35;96.07
74346;BME280;62776;50.518;6.732;2023-02-15T05:43:48;97542.66;;;4.33;95.95
74346;BME280;62776;50.518;6.732;2023-02-15T05:46:35;97537.44;;;4.32;95.63
74346;BME280;62776;50.518;6.732;2023-02-15T05:49:22;97546.00;;;4.31;94.90
74346;BME280;62776;50.518;6.732;2023-02-15T05:52:10;97539.69;;;4.21;94.97
74346;BME280;62776;50.518;6.732;2023-02-15T05:54:58;97533.66;;;4.21;95.38
74346;BME280;62776;50.518;6.732;2023-02-15T05:57:46;97533.56;;;4.17;95.52
74346;BME280;62776;50.518;6.732;2023-02-15T06:00:41;97537.56;;;4.06;95.59
74346;BME280;62776;50.518;6.732;2023-02-15T06:03:27;97534.22;;;4.10;96.07
74346;BME280;62776;50.518;6.732;2023-02-15T06:06:30;97528.00;;;4.02;95.55
74346;BME280;62776;50.518;6.732;2023-02-15T06:09:16;97534.03;;;4.04;95.62
74346;BME280;62776;50.518;6.732;2023-02-15T06:12:05;97528.00;;;4.02;95.53
74346;BME280;62776;50.518;6.732;2023-02-15T06:14:52;97534.00;;;4.03;95.08
74346;BME280;62776;50.518;6.732;2023-02-15T06:17:41;97538.06;;;3.96;94.29
74346;BME280;62776;50.518;6.732;2023-02-15T06:20:30;97538.19;;;3.99;93.95
74346;BME280;62776;50.518;6.732;2023-02-15T06:23:17;97541.56;;;3.98;94.06
74346;BME280;62776;50.518;6.732;2023-02-15T06:26:04;97532.84;;;3.93;94.23
74346;BME280;62776;50.518;6.732;2023-02-15T06:28:53;97546.00;;;4.02;92.73
74346;BME280;62776;50.518;6.732;2023-02-15T06:31:39;97541.75;;;4.04;92.94
74346;BME280;62776;50.518;6.732;2023-02-15T06:34:27;97537.50;;;4.05;92.62
74346;BME280;62776;50.518;6.732;2023-02-15T06:37:13;97539.19;;;4.04;92.58
74346;BME280;62776;50.518;6.732;2023-02-15T06:40:00;97542.63;;;4.05;92.08
74346;BME280;62776;50.518;6.732;2023-02-15T06:42:47;97540.13;;;4.06;91.56
74346;BME280;62776;50.518;6.732;2023-02-15T06:45:33;97545.44;;;4.12;90.84
74346;BME280;62776;50.518;6.732;2023-02-15T06:48:21;97543.88;;;4.17;89.59
74346;BME280;62776;50.518;6.732;2023-02-15T06:51:09;97545.25;;;4.35;88.42
74346;BME280;62776;50.518;6.732;2023-02-15T06:53:55;97544.75;;;4.46;87.19
74346;BME280;62776;50.518;6.732;2023-02-15T06:56:41;97534.66;;;4.54;86.65
74346;BME280;62776;50.518;6.732;2023-02-15T06:59:30;97536.69;;;4.64;85.32
74346;BME280;62776;50.518;6.732;2023-02-15T07:02:19;97536.91;;;4.71;84.89
74346;BME280;62776;50.518;6.732;2023-02-15T07:05:06;97531.22;;;4.83;84.58
74346;BME280;62776;50.518;6.732;2023-02-15T07:07:53;97528.06;;;4.95;84.21
74346;BME280;62776;50.518;6.732;2023-02-15T07:10:44;97529.03;;;4.98;83.93
74346;BME280;62776;50.518;6.732;2023-02-15T07:13:30;97531.00;;;5.08;84.73
74346;BME280;62776;50.518;6.732;2023-02-15T07:16:16;97526.03;;;5.14;84.42
74346;BME280;62776;50.518;6.732;2023-02-15T07:19:04;97526.22;;;5.22;84.22
74346;BME280;62776;50.518;6.732;2023-02-15T07:21:52;97510.03;;;5.27;83.56
74346;BME280;62776;50.518;6.732;2023-02-15T07:24:39;97519.53;;;5.28;84.26
74346;BME280;62776;50.518;6.732;2023-02-15T07:27:33;97516.28;;;5.35;84.67
74346;BME280;62776;50.518;6.732;2023-02-15T07:30:19;97514.72;;;5.42;83.26
74346;BME280;62776;50.518;6.732;2023-02-15T07:33:06;97508.13;;;5.53;82.84
74346;BME280;62776;50.518;6.732;2023-02-15T07:36:12;97502.34;;;5.63;82.53
74346;BME280;62776;50.518;6.732;2023-02-15T07:38:59;97504.41;;;5.76;81.62
74346;BME280;62776;50.518;6.732;2023-02-15T07:41:48;97505.38;;;5.83;81.51
74346;BME280;62776;50.518;6.732;2023-02-15T07:44:38;97497.88;;;5.90;81.26
74346;BME280;62776;50.518;6.732;2023-02-15T07:47:26;97496.28;;;5.96;80.77
74346;BME280;62776;50.518;6.732;2023-02-15T07:50:12;97492.09;;;6.02;80.59
74346;BME280;62776;50.518;6.732;2023-02-15T07:53:03;97486.19;;;6.08;80.50
74346;BME280;62776;50.518;6.732;2023-02-15T07:55:52;97482.94;;;6.15;80.79
74346;BME280;62776;50.518;6.732;2023-02-15T07:58:38;97477.84;;;6.18;81.16
74346;BME280;62776;50.518;6.732;2023-02-15T08:01:38;97483.03;;;6.21;81.26
74346;BME280;62776;50.518;6.732;2023-02-15T08:04:26;97475.41;;;6.25;79.79
74346;BME280;62776;50.518;6.732;2023-02-15T08:07:21;97471.34;;;6.36;78.45
74346;BME280;62776;50.518;6.732;2023-02-15T08:10:07;97479.28;;;6.45;77.96
74346;BME280;62776;50.518;6.732;2023-02-15T08:12:54;97479.44;;;6.54;77.37
74346;BME280;62776;50.518;6.732;2023-02-15T08:15:47;97474.41;;;6.59;76.51
74346;BME280;62776;50.518;6.732;2023-02-15T08:18:46;97474.53;;;6.67;77.49
74346;BME280;62776;50.518;6.732;2023-02-15T08:21:36;97475.56;;;6.76;76.91
74346;BME280;62776;50.518;6.732;2023-02-15T08:24:25;97473.09;;;6.81;75.59
74346;BME280;62776;50.518;6.732;2023-02-15T08:27:12;97476.75;;;6.92;73.89
74346;BME280;62776;50.518;6.732;2023-02-15T08:29:58;97476.06;;;7.02;72.13
74346;BME280;62776;50.518;6.732;2023-02-15T08:32:45;97476.31;;;7.17;70.45
74346;BME280;62776;50.518;6.732;2023-02-15T08:35:33;97467.19;;;7.36;67.64
74346;BME280;62776;50.518;6.732;2023-02-15T08:38:19;97468.25;;;7.48;66.07
74346;BME280;62776;50.518;6.732;2023-02-15T08:41:18;97476.06;;;7.51;65.67
74346;BME280;62776;50.518;6.732;2023-02-15T08:44:11;97478.03;;;7.66;65.59
74346;BME280;62776;50.518;6.732;2023-02-15T08:46:57;97477.31;;;7.78;66.36
74346;BME280;62776;50.518;6.732;2023-02-15T08:49:49;97473.91;;;7.80;65.63
74346;BME280;62776;50.518;6.732;2023-02-15T08:52:38;97461.22;;;7.94;64.55
74346;BME280;62776;50.518;6.732;2023-02-15T08:55:24;97457.06;;;8.06;62.08
74346;BME280;62776;50.518;6.732;2023-02-15T08:58:11;97458.91;;;8.16;63.37
74346;BME280;62776;50.518;6.732;2023-02-15T09:00:59;97456.44;;;8.25;62.11
74346;BME280;62776;50.518;6.732;2023-02-15T09:03:49;97463.47;;;8.32;60.58
74346;BME280;62776;50.518;6.732;2023-02-15T09:06:38;97460.16;;;8.44;60.02
74346;BME280;62776;50.518;6.732;2023-02-15T09:09:26;97465.53;;;8.56;59.00
74346;BME280;62776;50.518;6.732;2023-02-15T09:12:13;97457.81;;;8.64;58.84
74346;BME280;62776;50.518;6.732;2023-02-15T09:15:02;97461.44;;;8.78;57.51
74346;BME280;62776;50.518;6.732;2023-02-15T09:17:49;97465.84;;;8.85;58.62
74346;BME280;62776;50.518;6.732;2023-02-15T09:20:36;97464.16;;;8.88;58.48
74346;BME280;62776;50.518;6.732;2023-02-15T09:23:23;97464.25;;;8.98;58.12
74346;BME280;62776;50.518;6.732;2023-02-15T09:26:12;97460.03;;;9.06;57.42
74346;BME280;62776;50.518;6.732;2023-02-15T09:29:00;97464.44;;;9.16;56.65
74346;BME280;62776;50.518;6.732;2023-02-15T09:31:49;97469.75;;;9.28;56.22
74346;BME280;62776;50.518;6.732;2023-02-15T09:34:37;97471.59;;;9.42;55.49
74346;BME280;62776;50.518;6.732;2023-02-15T09:37:24;97470.81;;;9.51;55.83
74346;BME280;62776;50.518;6.732;2023-02-15T09:40:13;97471.72;;;9.55;56.13
74346;BME280;62776;50.518;6.732;2023-02-15T09:43:39;97469.13;;;9.53;55.92
74346;BME280;62776;50.518;6.732;2023-02-15T09:46:38;97460.66;;;9.80;54.68
74346;BME280;62776;50.518;6.732;2023-02-15T09:53:22;97463.34;;;9.93;55.54
74346;BME280;62776;50.518;6.732;2023-02-15T10:02:47;97469.47;;;10.04;55.33
74346;BME280;62776;50.518;6.732;2023-02-15T10:09:23;97451.44;;;10.24;54.87
74346;BME280;62776;50.518;6.732;2023-02-15T10:15:57;97465.34;;;10.38;53.01
74346;BME280;62776;50.518;6.732;2023-02-15T10:19:05;97465.41;;;10.46;53.65
74346;BME280;62776;50.518;6.732;2023-02-15T10:25:12;97462.00;;;10.59;53.96
74346;BME280;62776;50.518;6.732;2023-02-15T10:28:16;97464.66;;;10.73;54.12
74346;BME280;62776;50.518;6.732;2023-02-15T10:31:24;97460.28;;;10.67;54.71
74346;BME280;62776;50.518;6.732;2023-02-15T10:34:16;97467.28;;;10.79;54.87
74346;BME280;62776;50.518;6.732;2023-02-15T10:43:34;97475.16;;;11.07;55.57
74346;BME280;62776;50.518;6.732;2023-02-15T10:47:03;97463.03;;;11.03;54.76
74346;BME280;62776;50.518;6.732;2023-02-15T11:05:21;97455.25;;;11.34;52.01
74346;BME280;62776;50.518;6.732;2023-02-15T11:08:14;97453.50;;;11.37;50.97
74346;BME280;62776;50.518;6.732;2023-02-15T11:11:06;97446.59;;;11.41;50.93
74346;BME280;62776;50.518;6.732;2023-02-15T11:14:03;97445.72;;;11.43;50.14
74346;BME280;62776;50.518;6.732;2023-02-15T11:16:54;97437.94;;;11.51;50.11
74346;BME280;62776;50.518;6.732;2023-02-15T11:23:16;97429.22;;;11.55;50.78
74346;BME280;62776;50.518;6.732;2023-02-15T11:26:14;97436.19;;;11.53;49.65
74346;BME280;62776;50.518;6.732;2023-02-15T11:32:26;97430.13;;;11.61;49.02
74346;BME280;62776;50.518;6.732;2023-02-15T11:38:21;97431.88;;;11.74;47.94
74346;BME280;62776;50.518;6.732;2023-02-15T11:41:22;97424.91;;;11.79;47.28
74346;BME280;62776;50.518;6.732;2023-02-15T11:44:41;97428.41;;;11.69;46.61
74346;BME280;62776;50.518;6.732;2023-02-15T11:47:28;97426.63;;;11.88;46.74
74346;BME280;62776;50.518;6.732;2023-02-15T11:50:31;97416.22;;;11.91;46.39
74346;BME280;62776;50.518;6.732;2023-02-15T11:53:24;97409.22;;;11.98;45.85
74346;BME280;62776;50.518;6.732;2023-02-15T11:56:24;97406.63;;;12.07;45.50
74346;BME280;62776;50.518;6.732;2023-02-15T11:59:28;97402.28;;;12.10;45.63
74346;BME280;62776;50.518;6.732;2023-02-15T12:02:22;97398.78;;;12.14;45.89
74346;BME280;62776;50.518;6.732;2023-02-15T12:05:17;97399.66;;;12.16;46.27
74346;BME280;62776;50.518;6.732;2023-02-15T12:08:16;97390.94;;;12.23;47.14
74346;BME280;62776;50.518;6.732;2023-02-15T12:11:35;97388.34;;;12.25;47.68
74346;BME280;62776;50.518;6.732;2023-02-15T12:14:20;97392.63;;;12.38;48.15
74346;BME280;62776;50.518;6.732;2023-02-15T12:17:13;97389.16;;;12.37;47.87
74346;BME280;62776;50.518;6.732;2023-02-15T12:23:11;97381.31;;;12.43;48.00
74346;BME280;62776;50.518;6.732;2023-02-15T12:25:59;97375.16;;;12.54;48.03
74346;BME280;62776;50.518;6.732;2023-02-15T12:28:50;97372.56;;;12.55;48.39
74346;BME280;62776;50.518;6.732;2023-02-15T12:31:43;97368.16;;;12.59;48.29
74346;BME280;62776;50.518;6.732;2023-02-15T12:34:36;97369.91;;;12.61;48.79
74346;BME280;62776;50.518;6.732;2023-02-15T12:37:29;97365.50;;;12.66;49.33
74346;BME280;62776;50.518;6.732;2023-02-15T12:40:22;97361.16;;;12.67;48.23
74346;BME280;62776;50.518;6.732;2023-02-15T12:43:36;97362.97;;;12.56;48.48
74346;BME280;62776;50.518;6.732;2023-02-15T12:46:25;97356.81;;;12.67;48.29
74346;BME280;62776;50.518;6.732;2023-02-15T12:49:20;97348.09;;;12.73;49.07
74346;BME280;62776;50.518;6.732;2023-02-15T12:52:25;97348.13;;;12.68;49.10
74346;BME280;62776;50.518;6.732;2023-02-15T12:55:24;97344.59;;;12.80;49.16
74346;BME280;62776;50.518;6.732;2023-02-15T12:58:21;97336.72;;;12.83;49.68
74346;BME280;62776;50.518;6.732;2023-02-15T13:01:19;97334.16;;;12.78;49.19
74346;BME280;62776;50.518;6.732;2023-02-15T13:04:25;97335.91;;;12.76;49.46
74346;BME280;62776;50.518;6.732;2023-02-15T13:07:19;97329.75;;;12.91;49.37
74346;BME280;62776;50.518;6.732;2023-02-15T13:10:28;97332.34;;;12.89;49.71
74346;BME280;62776;50.518;6.732;2023-02-15T13:13:28;97321.91;;;12.91;49.83
74346;BME280;62776;50.518;6.732;2023-02-15T13:16:16;97319.22;;;12.98;49.62
74346;BME280;62776;50.518;6.732;2023-02-15T13:19:47;97307.16;;;12.81;49.31
74346;BME280;62776;50.518;6.732;2023-02-15T13:26:14;97309.69;;;12.94;49.56
74346;BME280;62776;50.518;6.732;2023-02-15T13:29:29;97299.25;;;12.94;49.69
74346;BME280;62776;50.518;6.732;2023-02-15T13:35:17;97304.41;;;13.02;49.89
74346;BME280;62776;50.518;6.732;2023-02-15T13:38:20;97294.06;;;12.93;50.33
74346;BME280;62776;50.518;6.732;2023-02-15T13:41:25;97300.09;;;12.98;50.36
74346;BME280;62776;50.518;6.732;2023-02-15T13:44:27;97295.72;;;13.00;50.77
74346;BME280;62776;50.518;6.732;2023-02-15T13:47:26;97294.88;;;12.98;49.78
74346;BME280;62776;50.518;6.732;2023-02-15T13:50:57;97300.97;;;12.94;50.85
74346;BME280;62776;50.518;6.732;2023-02-15T14:07:50;97297.47;;;13.07;50.22
74346;BME280;62776;50.518;6.732;2023-02-15T14:10:45;97292.19;;;13.12;50.30
74346;BME280;62776;50.518;6.732;2023-02-15T14:13:38;97297.41;;;13.12;51.31
74346;BME280;62776;50.518;6.732;2023-02-15T14:19:46;97302.66;;;13.10;48.14
74346;BME280;62776;50.518;6.732;2023-02-15T14:25:27;97302.59;;;13.13;49.91
74346;BME280;62776;50.518;6.732;2023-02-15T14:28:33;97299.22;;;12.97;50.28
74346;BME280;62776;50.518;6.732;2023-02-15T14:31:29;97302.69;;;12.98;50.95
74346;BME280;62776;50.518;6.732;2023-02-15T14:35:05;97302.69;;;12.96;50.57
74346;BME280;62776;50.518;6.732;2023-02-15T14:37:39;97321.00;;;12.93;51.13
74346;BME280;62776;50.518;6.732;2023-02-15T14:46:49;97313.25;;;12.84;51.80
74346;BME280;62776;50.518;6.732;2023-02-15T14:49:38;97317.59;;;12.84;52.46
74346;BME280;62776;50.518;6.732;2023-02-15T14:52:31;97304.53;;;12.84;51.63
74346;BME280;62776;50.518;6.732;2023-02-15T14:55:40;97309.75;;;12.84;51.77
74346;BME280;62776;50.518;6.732;2023-02-15T14:58:26;97308.06;;;12.80;52.10
74346;BME280;62776;50.518;6.732;2023-02-15T15:04:27;97322.94;;;12.64;52.66
74346;BME280;62776;50.518;6.732;2023-02-15T15:07:20;97322.09;;;12.59;51.01
74346;BME280;62776;50.518;6.732;2023-02-15T15:10:40;97318.69;;;12.45;50.19
74346;BME280;62776;50.518;6.732;2023-02-15T15:13:37;97311.72;;;12.47;49.89
74346;BME280;62776;50.518;6.732;2023-02-15T15:22:32;97308.31;;;12.40;51.29
74346;BME280;62776;50.518;6.732;2023-02-15T15:25:56;97307.53;;;12.20;51.32
74346;BME280;62776;50.518;6.732;2023-02-15T15:31:53;97305.81;;;12.19;51.62
74346;BME280;62776;50.518;6.732;2023-02-15T15:38:24;97319.84;;;11.68;52.96
74346;BME280;62776;50.518;6.732;2023-02-15T15:41:18;97317.22;;;11.88;52.69
74346;BME280;62776;50.518;6.732;2023-02-15T15:44:42;97311.19;;;11.71;53.50
74346;BME280;62776;50.518;6.732;2023-02-15T15:50:53;97308.56;;;11.65;54.19
74346;BME280;62776;50.518;6.732;2023-02-15T15:53:46;97308.59;;;11.57;54.57
74346;BME280;62776;50.518;6.732;2023-02-15T15:56:37;97313.81;;;11.51;55.19
74346;BME280;62776;50.518;6.732;2023-02-15T15:59:30;97312.09;;;11.44;55.44
74346;BME280;62776;50.518;6.732;2023-02-15T16:02:19;97306.91;;;11.40;56.35
74346;BME280;62776;50.518;6.732;2023-02-15T16:05:09;97314.72;;;11.26;56.67
74346;BME280;62776;50.518;6.732;2023-02-15T16:07:58;97313.84;;;11.19;57.24
74346;BME280;62776;50.518;6.732;2023-02-15T16:10:45;97309.50;;;11.12;58.23
74346;BME280;62776;50.518;6.732;2023-02-15T16:13:31;97305.19;;;11.05;58.38
74346;BME280;62776;50.518;6.732;2023-02-15T16:16:27;97313.00;;;10.84;58.92
74346;BME280;62776;50.518;6.732;2023-02-15T16:19:35;97304.31;;;10.79;59.48
74346;BME280;62776;50.518;6.732;2023-02-15T16:22:25;97312.97;;;10.72;60.94
74346;BME280;62776;50.518;6.732;2023-02-15T16:25:58;97313.78;;;10.39;61.87
74346;BME280;62776;50.518;6.732;2023-02-15T16:28:58;97317.25;;;10.44;62.95
74346;BME280;62776;50.518;6.732;2023-02-15T16:35:15;97323.22;;;10.15;64.64
74346;BME280;62776;50.518;6.732;2023-02-15T16:38:07;97320.63;;;10.15;64.77
74346;BME280;62776;50.518;6.732;2023-02-15T16:40:57;97321.41;;;10.06;65.82
74346;BME280;62776;50.518;6.732;2023-02-15T16:43:48;97321.38;;;9.92;67.06
74346;BME280;62776;50.518;6.732;2023-02-15T16:46:43;97320.41;;;9.74;68.26
74346;BME280;62776;50.518;6.732;2023-02-15T16:49:33;97324.75;;;9.75;69.68
74346;BME280;62776;50.518;6.732;2023-02-15T16:52:25;97325.53;;;9.62;70.47
74346;BME280;62776;50.518;6.732;2023-02-15T16:55:24;97329.72;;;9.40;70.92
74346;BME280;62776;50.518;6.732;2023-02-15T16:58:16;97334.88;;;9.37;71.31
74346;BME280;62776;50.518;6.732;2023-02-15T17:01:07;97347.00;;;9.33;72.20
74346;BME280;62776;50.518;6.732;2023-02-15T17:07:19;97338.97;;;9.03;73.18
74346;BME280;62776;50.518;6.732;2023-02-15T17:10:26;97348.31;;;8.87;74.26
74346;BME280;62776;50.518;6.732;2023-02-15T17:13:16;97346.66;;;8.96;74.85
74346;BME280;62776;50.518;6.732;2023-02-15T17:16:27;97336.94;;;8.67;75.49
74346;BME280;62776;50.518;6.732;2023-02-15T17:19:31;97339.59;;;8.73;76.54
74346;BME280;62776;50.518;6.732;2023-02-15T17:22:24;97342.84;;;8.57;77.68
74346;BME280;62776;50.518;6.732;2023-02-15T17:25:21;97344.47;;;8.46;78.09
74346;BME280;62776;50.518;6.732;2023-02-15T17:28:20;97341.81;;;8.39;79.07
74346;BME280;62776;50.518;6.732;2023-02-15T17:31:08;97346.16;;;8.41;79.90
74346;BME280;62776;50.518;6.732;2023-02-15T17:33:54;97345.19;;;8.33;80.57
74346;BME280;62776;50.518;6.732;2023-02-15T17:36:57;97350.94;;;8.09;81.03